Time,TemperatureF,DewpointF,PressureIn,WindDirection,WindDirectionDegrees,WindSpeedMPH,WindSpeedGustMPH,Humidity,HourlyPrecipIn,Conditions,Clouds,dailyrainin,SoftwareType,DateUTC
2013-02-11 06:59:00,32.4,26.6,30.01,North,0,0.0,0.0,79,0.00,,,0.00,WUHU216HW,2013-02-11 12:59:00,
2013-02-11 07:04:00,32.4,26.3,30.01,North,0,0.0,0.0,78,0.00,,,0.00,WUHU216HW,2013-02-11 13:04:00,
2013-02-11 07:09:00,32.2,25.8,30.02,North,0,0.0,0.0,77,0.00,,,0.00,WUHU216HW,2013-02-11 13:09:00,
2013-02-11 07:14:00,32.2,25.8,30.02,North,0,0.0,0.0,77,0.00,,,0.00,WUHU216HW,2013-02-11 13:14:00,
2013-02-11 07:19:00,32.2,25.8,30.02,North,0,0.0,0.0,77,0.00,,,0.00,WUHU216HW,2013-02-11 13:19:00,
2013-02-11 07:24:00,32.2,25.5,30.02,North,0,0.0,0.0,76,0.00,,,0.00,WUHU216HW,2013-02-11 13:24:00,
2013-02-11 07:29:00,32.2,25.5,30.03,North,0,0.0,0.0,76,0.00,,,0.00,WUHU216HW,2013-02-11 13:29:00,
2013-02-11 07:34:00,32.2,25.8,30.04,North,0,0.0,0.0,77,0.00,,,0.00,WUHU216HW,2013-02-11 13:34:00,
2013-02-11 07:39:00,32.2,25.8,30.04,North,0,0.0,0.0,77,0.00,,,0.00,WUHU216HW,2013-02-11 13:39:00,
2013-02-11 07:44:00,32.2,25.8,30.04,North,0,0.0,0.0,77,0.00,,,0.00,WUHU216HW,2013-02-11 13:44:00,
2013-02-11 07:49:00,32.2,25.8,30.05,North,0,0.0,0.0,77,0.00,,,0.00,WUHU216HW,2013-02-11 13:49:00,
2013-02-11 07:54:00,32.2,26.2,30.04,North,0,0.0,0.0,78,0.00,,,0.00,WUHU216HW,2013-02-11 13:54:00,
2013-02-11 07:59:00,32.2,25.8,30.05,North,0,0.0,0.0,77,0.00,,,0.00,WUHU216HW,2013-02-11 13:59:00,
2013-02-11 08:04:00,32.2,25.8,30.05,North,0,0.0,0.0,77,0.00,,,0.00,WUHU216HW,2013-02-11 14:04:00,
2013-02-11 08:10:00,32.2,25.8,30.06,North,0,0.0,0.0,77,0.00,,,0.00,WUHU216HW,2013-02-11 14:10:00,
2013-02-11 08:14:00,32.2,25.5,30.06,North,0,0.0,0.0,76,0.00,,,0.00,WUHU216HW,2013-02-11 14:14:00,
2013-02-11 08:19:00,32.2,25.5,30.07,North,0,0.0,0.0,76,0.00,,,0.00,WUHU216HW,2013-02-11 14:19:00,
2013-02-11 08:24:00,32.2,24.8,30.07,North,0,0.0,0.0,74,0.00,,,0.00,WUHU216HW,2013-02-11 14:24:00,
2013-02-11 08:29:00,32.2,25.2,30.07,North,0,0.0,0.0,75,0.00,,,0.00,WUHU216HW,2013-02-11 14:29:00,
2013-02-11 08:34:00,32.2,24.8,30.07,North,0,0.0,0.0,74,0.00,,,0.00,WUHU216HW,2013-02-11 14:34:00,
2013-02-11 08:39:00,32.2,25.2,30.08,North,0,0.0,0.0,75,0.00,,,0.00,WUHU216HW,2013-02-11 14:39:00,
2013-02-11 08:44:00,32.4,25.7,30.08,North,0,0.0,0.0,76,0.00,,,0.00,WUHU216HW,2013-02-11 14:44:00,
2013-02-11 08:49:00,32.4,25.4,30.09,North,0,0.0,0.0,75,0.00,,,0.00,WUHU216HW,2013-02-11 14:49:00,
2013-02-11 08:54:00,32.4,25.0,30.09,North,0,0.0,0.0,74,0.00,,,0.00,WUHU216HW,2013-02-11 14:54:00,
2013-02-11 08:59:00,32.4,25.0,30.09,North,0,0.0,0.0,74,0.00,,,0.00,WUHU216HW,2013-02-11 14:59:00,
2013-02-11 09:04:00,32.4,24.7,30.09,North,0,0.0,0.0,73,0.00,,,0.00,WUHU216HW,2013-02-11 15:04:00,
2013-02-11 09:09:00,32.4,24.7,30.10,North,0,0.0,0.0,73,0.00,,,0.00,WUHU216HW,2013-02-11 15:09:00,
2013-02-11 09:14:00,32.4,24.7,30.10,North,0,0.0,0.0,73,0.00,,,0.00,WUHU216HW,2013-02-11 15:14:00,
2013-02-11 09:19:00,32.4,24.7,30.10,North,0,0.0,0.0,73,0.00,,,0.00,WUHU216HW,2013-02-11 15:19:00,
2013-02-11 09:24:00,32.4,24.7,30.10,North,0,0.0,0.0,73,0.00,,,0.00,WUHU216HW,2013-02-11 15:24:00,
2013-02-11 09:29:00,32.4,24.7,30.10,North,0,0.0,0.0,73,0.00,,,0.00,WUHU216HW,2013-02-11 15:29:00,
2013-02-11 09:34:00,32.4,24.7,30.11,North,0,0.0,0.0,73,0.00,,,0.00,WUHU216HW,2013-02-11 15:34:00,
2013-02-11 09:39:00,32.4,24.7,30.11,North,0,0.0,0.0,73,0.00,,,0.00,WUHU216HW,2013-02-11 15:39:00,
2013-02-11 09:44:00,32.4,24.7,30.12,North,0,0.0,0.0,73,0.00,,,0.00,WUHU216HW,2013-02-11 15:44:00,
2013-02-11 09:49:00,32.2,24.8,30.12,North,0,0.0,0.0,74,0.00,,,0.00,WUHU216HW,2013-02-11 15:49:00,
2013-02-11 09:54:00,32.2,24.6,30.12,North,0,0.0,0.0,73,0.00,,,0.00,WUHU216HW,2013-02-11 15:54:00,
2013-02-11 09:59:00,32.2,24.8,30.13,North,0,0.0,0.0,74,0.00,,,0.00,WUHU216HW,2013-02-11 15:59:00,
2013-02-11 10:04:00,32.2,24.8,30.13,North,0,0.0,0.0,74,0.00,,,0.00,WUHU216HW,2013-02-11 16:04:00,
2013-02-11 10:09:00,32.2,24.8,30.13,North,0,0.0,0.0,74,0.00,,,0.00,WUHU216HW,2013-02-11 16:09:00,
2013-02-11 10:14:00,32.2,24.8,30.14,North,0,0.0,0.0,74,0.00,,,0.00,WUHU216HW,2013-02-11 16:14:00,
2013-02-11 10:19:00,32.2,23.9,30.14,North,0,0.0,0.0,71,0.00,,,0.00,WUHU216HW,2013-02-11 16:19:00,
2013-02-11 10:24:00,32.2,23.9,30.15,North,0,0.0,0.0,71,0.00,,,0.00,WUHU216HW,2013-02-11 16:24:00,
2013-02-11 10:29:00,32.4,23.8,30.15,North,0,0.0,0.0,70,0.00,,,0.00,WUHU216HW,2013-02-11 16:29:00,
2013-02-11 10:34:00,32.4,24.4,30.15,North,0,0.0,0.0,72,0.00,,,0.00,WUHU216HW,2013-02-11 16:34:00,
2013-02-11 10:39:00,32.4,24.4,30.15,North,0,0.0,0.0,72,0.00,,,0.00,WUHU216HW,2013-02-11 16:39:00,
2013-02-11 10:44:00,32.4,24.4,30.16,North,0,0.0,0.0,72,0.00,,,0.00,WUHU216HW,2013-02-11 16:44:00,
2013-02-11 10:49:00,32.2,24.2,30.16,North,0,0.0,0.0,72,0.00,,,0.00,WUHU216HW,2013-02-11 16:49:00,
2013-02-11 10:54:00,32.2,24.6,30.16,North,0,0.0,0.0,73,0.00,,,0.00,WUHU216HW,2013-02-11 16:54:00,
2013-02-11 10:59:00,32.2,24.2,30.17,North,0,0.0,0.0,72,0.00,,,0.00,WUHU216HW,2013-02-11 16:59:00,
2013-02-11 11:04:00,32.0,24.0,30.17,North,0,0.0,0.0,72,0.00,,,0.00,WUHU216HW,2013-02-11 17:04:00,
2013-02-11 11:09:00,32.2,24.6,30.17,North,0,0.0,0.0,73,0.00,,,0.00,WUHU216HW,2013-02-11 17:09:00,
2013-02-11 11:14:00,32.2,24.2,30.17,North,0,0.0,0.0,72,0.00,,,0.00,WUHU216HW,2013-02-11 17:14:00,
2013-02-11 11:19:00,32.4,24.4,30.17,North,0,0.0,0.0,72,0.00,,,0.00,WUHU216HW,2013-02-11 17:19:00,
2013-02-11 11:24:00,32.6,24.6,30.17,North,0,0.0,0.0,72,0.00,,,0.00,WUHU216HW,2013-02-11 17:24:00,
2013-02-11 11:29:00,32.6,24.6,30.17,North,0,0.0,0.0,72,0.00,,,0.00,WUHU216HW,2013-02-11 17:29:00,
2013-02-11 11:34:00,32.4,23.8,30.17,North,0,0.0,0.0,70,0.00,,,0.00,WUHU216HW,2013-02-11 17:34:00,
2013-02-11 11:39:00,32.4,24.0,30.18,North,0,0.0,0.0,71,0.00,,,0.00,WUHU216HW,2013-02-11 17:39:00,
2013-02-11 11:44:00,32.6,24.2,30.18,North,0,0.0,0.0,71,0.00,,,0.00,WUHU216HW,2013-02-11 17:44:00,
2013-02-11 11:49:00,32.6,24.6,30.18,North,0,0.0,0.0,72,0.00,,,0.00,WUHU216HW,2013-02-11 17:49:00,
2013-02-11 11:54:00,32.6,24.6,30.19,North,0,0.0,0.0,72,0.00,,,0.00,WUHU216HW,2013-02-11 17:54:00,
2013-02-11 11:59:00,32.4,23.8,30.19,North,0,0.0,0.0,70,0.00,,,0.00,WUHU216HW,2013-02-11 17:59:00,
2013-02-11 12:04:00,32.6,23.9,30.19,North,0,0.0,0.0,70,0.00,,,0.00,WUHU216HW,2013-02-11 18:04:00,
2013-02-11 12:09:00,32.8,24.0,30.19,North,0,0.0,0.0,70,0.00,,,0.00,WUHU216HW,2013-02-11 18:09:00,
2013-02-11 12:14:00,32.8,24.0,30.19,North,0,0.0,0.0,70,0.00,,,0.00,WUHU216HW,2013-02-11 18:14:00,
2013-02-11 12:20:00,32.8,24.4,30.19,North,0,0.0,0.0,71,0.00,,,0.00,WUHU216HW,2013-02-11 18:20:00,
2013-02-11 12:25:00,32.6,24.6,30.19,North,0,0.0,0.0,72,0.00,,,0.00,WUHU216HW,2013-02-11 18:25:00,
2013-02-11 12:29:00,32.6,24.2,30.20,North,0,0.0,0.0,71,0.00,,,0.00,WUHU216HW,2013-02-11 18:29:00,
2013-02-11 12:34:00,32.2,23.9,30.20,North,0,0.0,0.0,71,0.00,,,0.00,WUHU216HW,2013-02-11 18:34:00,
2013-02-11 12:40:00,32.2,23.9,30.20,North,0,0.0,0.0,71,0.00,,,0.00,WUHU216HW,2013-02-11 18:40:00,
2013-02-11 12:45:00,32.2,23.6,30.20,North,0,0.0,0.0,70,0.00,,,0.00,WUHU216HW,2013-02-11 18:45:00,
2013-02-11 12:50:00,32.2,23.6,30.20,North,0,0.0,0.0,70,0.00,,,0.00,WUHU216HW,2013-02-11 18:50:00,
2013-02-11 12:55:00,32.2,23.6,30.20,North,0,0.0,0.0,70,0.00,,,0.00,WUHU216HW,2013-02-11 18:55:00,
2013-02-11 13:00:00,32.2,23.6,30.20,North,0,0.0,0.0,70,0.00,,,0.00,WUHU216HW,2013-02-11 19:00:00,
2013-02-11 13:05:00,32.4,23.8,30.21,North,0,0.0,0.0,70,0.00,,,0.00,WUHU216HW,2013-02-11 19:05:00,
2013-02-11 13:10:00,32.2,23.6,30.21,North,0,0.0,0.0,70,0.00,,,0.00,WUHU216HW,2013-02-11 19:10:00,
2013-02-11 13:15:00,32.4,23.8,30.21,North,0,0.0,0.0,70,0.00,,,0.00,WUHU216HW,2013-02-11 19:15:00,
2013-02-11 13:20:00,32.6,23.9,30.21,North,0,0.0,0.0,70,0.00,,,0.00,WUHU216HW,2013-02-11 19:20:00,
2013-02-11 13:25:00,32.4,23.4,30.22,North,0,0.0,0.0,69,0.00,,,0.00,WUHU216HW,2013-02-11 19:25:00,
2013-02-11 13:30:00,32.2,23.6,30.22,North,0,0.0,0.0,70,0.00,,,0.00,WUHU216HW,2013-02-11 19:30:00,
2013-02-11 13:35:00,32.0,23.4,30.22,North,0,0.0,0.0,70,0.00,,,0.00,WUHU216HW,2013-02-11 19:35:00,
2013-02-11 13:40:00,32.0,23.4,30.22,North,0,0.0,0.0,70,0.00,,,0.00,WUHU216HW,2013-02-11 19:40:00,
2013-02-11 13:45:00,32.4,23.8,30.22,North,0,0.0,0.0,70,0.00,,,0.00,WUHU216HW,2013-02-11 19:45:00,
2013-02-11 13:50:00,32.6,23.9,30.23,North,0,0.0,0.0,70,0.00,,,0.00,WUHU216HW,2013-02-11 19:50:00,
2013-02-11 13:55:00,32.8,24.0,30.22,North,0,0.0,0.0,70,0.00,,,0.00,WUHU216HW,2013-02-11 19:55:00,
2013-02-11 14:00:00,32.8,24.0,30.23,North,0,0.0,0.0,70,0.00,,,0.00,WUHU216HW,2013-02-11 20:00:00,
2013-02-11 14:05:00,32.8,24.0,30.23,North,0,0.0,0.0,70,0.00,,,0.00,WUHU216HW,2013-02-11 20:05:00,
2013-02-11 14:10:00,32.6,23.9,30.23,North,0,0.0,0.0,70,0.00,,,0.00,WUHU216HW,2013-02-11 20:10:00,
2013-02-11 14:14:00,32.4,23.4,30.23,North,0,0.0,0.0,69,0.00,,,0.00,WUHU216HW,2013-02-11 20:14:00,
2013-02-11 14:20:00,32.6,23.9,30.23,North,0,0.0,0.0,70,0.00,,,0.00,WUHU216HW,2013-02-11 20:20:00,
2013-02-11 14:25:00,32.8,24.0,30.24,North,0,0.0,0.0,70,0.00,,,0.00,WUHU216HW,2013-02-11 20:25:00,
2013-02-11 14:30:00,32.8,24.0,30.24,North,0,0.0,0.0,70,0.00,,,0.00,WUHU216HW,2013-02-11 20:30:00,
2013-02-11 14:35:00,32.8,23.7,30.24,North,0,0.0,0.0,69,0.00,,,0.00,WUHU216HW,2013-02-11 20:35:00,
2013-02-11 14:40:00,32.6,23.5,30.25,North,0,0.0,0.0,69,0.00,,,0.00,WUHU216HW,2013-02-11 20:40:00,
2013-02-11 14:45:00,32.6,23.5,30.25,North,0,0.0,0.0,69,0.00,,,0.00,WUHU216HW,2013-02-11 20:45:00,
2013-02-11 14:50:00,32.4,23.8,30.25,North,0,0.0,0.0,70,0.00,,,0.00,WUHU216HW,2013-02-11 20:50:00,
2013-02-11 14:54:00,32.2,23.2,30.25,North,0,0.0,0.0,69,0.00,,,0.00,WUHU216HW,2013-02-11 20:54:00,
2013-02-11 14:59:00,32.0,23.4,30.25,North,0,0.0,0.0,70,0.00,,,0.00,WUHU216HW,2013-02-11 20:59:00,
2013-02-11 15:05:00,32.0,23.4,30.26,North,0,0.0,0.0,70,0.00,,,0.00,WUHU216HW,2013-02-11 21:05:00,
2013-02-11 15:10:00,31.9,23.2,30.26,North,0,0.0,0.0,70,0.00,,,0.00,WUHU216HW,2013-02-11 21:10:00,
2013-02-11 15:15:00,31.9,23.2,30.26,North,0,0.0,0.0,70,0.00,,,0.00,WUHU216HW,2013-02-11 21:15:00,
2013-02-11 15:20:00,31.9,23.2,30.26,North,0,0.0,0.0,70,0.00,,,0.00,WUHU216HW,2013-02-11 21:20:00,
2013-02-11 15:25:00,31.9,23.2,30.26,North,0,0.0,0.0,70,0.00,,,0.00,WUHU216HW,2013-02-11 21:25:00,
2013-02-11 15:30:00,31.9,23.2,30.26,North,0,0.0,0.0,70,0.00,,,0.00,WUHU216HW,2013-02-11 21:30:00,
2013-02-11 15:35:00,32.0,23.4,30.27,North,0,0.0,0.0,70,0.00,,,0.00,WUHU216HW,2013-02-11 21:35:00,
2013-02-11 15:40:00,31.9,23.2,30.27,North,0,0.0,0.0,70,0.00,,,0.00,WUHU216HW,2013-02-11 21:40:00,
2013-02-11 15:45:00,31.7,23.0,30.27,North,0,0.0,0.0,70,0.00,,,0.00,WUHU216HW,2013-02-11 21:45:00,
2013-02-11 15:50:00,31.7,23.4,30.27,North,0,0.0,0.0,71,0.00,,,0.00,WUHU216HW,2013-02-11 21:50:00,
2013-02-11 15:55:00,31.5,23.2,30.27,North,0,0.0,0.0,71,0.00,,,0.00,WUHU216HW,2013-02-11 21:55:00,
2013-02-11 15:59:00,31.5,23.2,30.28,North,0,0.0,0.0,71,0.00,,,0.00,WUHU216HW,2013-02-11 21:59:00,
2013-02-11 16:05:00,31.3,23.1,30.29,North,0,0.0,0.0,71,0.00,,,0.00,WUHU216HW,2013-02-11 22:05:00,
2013-02-11 16:10:00,31.3,23.3,30.28,North,0,0.0,0.0,72,0.00,,,0.00,WUHU216HW,2013-02-11 22:10:00,
2013-02-11 16:15:00,31.3,23.7,30.29,North,0,0.0,0.0,73,0.00,,,0.00,WUHU216HW,2013-02-11 22:15:00,
2013-02-11 16:20:00,31.3,23.7,30.29,North,0,0.0,0.0,73,0.00,,,0.00,WUHU216HW,2013-02-11 22:20:00,
2013-02-11 16:25:00,31.3,23.7,30.29,North,0,0.0,0.0,73,0.00,,,0.00,WUHU216HW,2013-02-11 22:25:00,
2013-02-11 16:29:00,31.3,23.7,30.30,North,0,0.0,0.0,73,0.00,,,0.00,WUHU216HW,2013-02-11 22:29:00,
2013-02-11 16:35:00,31.3,23.7,30.30,North,0,0.0,0.0,73,0.00,,,0.00,WUHU216HW,2013-02-11 22:35:00,
2013-02-11 16:40:00,31.1,23.8,30.30,North,0,0.0,0.0,74,0.00,,,0.00,WUHU216HW,2013-02-11 22:40:00,
2013-02-11 16:45:00,31.1,23.8,30.30,North,0,0.0,0.0,74,0.00,,,0.00,WUHU216HW,2013-02-11 22:45:00,
2013-02-11 16:49:00,31.0,23.3,30.30,North,0,0.0,0.0,73,0.00,,,0.00,WUHU216HW,2013-02-11 22:49:00,
2013-02-11 16:54:00,31.0,23.6,30.30,North,0,0.0,0.0,74,0.00,,,0.00,WUHU216HW,2013-02-11 22:54:00,
2013-02-11 16:59:00,30.8,23.1,30.30,North,0,0.0,0.0,73,0.00,,,0.00,WUHU216HW,2013-02-11 22:59:00,
2013-02-11 17:04:00,30.8,23.1,30.30,North,0,0.0,0.0,73,0.00,,,0.00,WUHU216HW,2013-02-11 23:04:00,
2013-02-11 17:09:00,30.6,23.2,30.31,North,0,0.0,0.0,74,0.00,,,0.00,WUHU216HW,2013-02-11 23:09:00,
2013-02-11 17:14:00,30.6,23.6,30.31,North,0,0.0,0.0,75,0.00,,,0.00,WUHU216HW,2013-02-11 23:14:00,
2013-02-11 17:19:00,30.6,23.2,30.31,North,0,0.0,0.0,74,0.00,,,0.00,WUHU216HW,2013-02-11 23:19:00,
2013-02-11 17:24:00,30.6,23.6,30.31,North,0,0.0,0.0,75,0.00,,,0.00,WUHU216HW,2013-02-11 23:24:00,
2013-02-11 17:29:00,30.6,23.6,30.31,North,0,0.0,0.0,75,0.00,,,0.00,WUHU216HW,2013-02-11 23:29:00,
2013-02-11 17:34:00,30.6,23.6,30.32,North,0,0.0,0.0,75,0.00,,,0.00,WUHU216HW,2013-02-11 23:34:00,
2013-02-11 17:39:00,30.6,24.0,30.32,North,0,0.0,0.0,76,0.00,,,0.00,WUHU216HW,2013-02-11 23:39:00,
2013-02-11 17:44:00,30.6,24.0,30.33,North,0,0.0,0.0,76,0.00,,,0.00,WUHU216HW,2013-02-11 23:44:00,
2013-02-11 17:49:00,30.6,24.0,30.33,North,0,0.0,0.0,76,0.00,,,0.00,WUHU216HW,2013-02-11 23:49:00,
2013-02-11 17:54:00,30.6,24.0,30.33,North,0,0.0,0.0,76,0.00,,,0.00,WUHU216HW,2013-02-11 23:54:00,
2013-02-11 17:59:00,30.6,24.0,30.33,North,0,0.0,0.0,76,0.00,,,0.00,WUHU216HW,2013-02-11 23:59:00,
2013-02-11 18:04:00,30.6,24.0,30.33,North,0,0.0,0.0,76,0.00,,,0.00,WUHU216HW,2013-02-12 00:04:00,
2013-02-11 18:09:00,30.4,24.0,30.33,North,0,0.0,0.0,77,0.00,,,0.00,WUHU216HW,2013-02-12 00:09:00,
2013-02-11 18:14:00,30.4,24.0,30.33,North,0,0.0,0.0,77,0.00,,,0.00,WUHU216HW,2013-02-12 00:14:00,
2013-02-11 18:19:00,30.4,24.0,30.34,North,0,0.0,0.0,77,0.00,,,0.00,WUHU216HW,2013-02-12 00:19:00,
2013-02-11 18:24:00,30.4,24.0,30.34,North,0,0.0,0.0,77,0.00,,,0.00,WUHU216HW,2013-02-12 00:24:00,
2013-02-11 18:29:00,30.4,23.8,30.34,North,0,0.0,0.0,76,0.00,,,0.00,WUHU216HW,2013-02-12 00:29:00,
2013-02-11 18:34:00,30.4,23.8,30.34,North,0,0.0,0.0,76,0.00,,,0.00,WUHU216HW,2013-02-12 00:34:00,
2013-02-11 18:39:00,30.4,23.8,30.34,North,0,0.0,0.0,76,0.00,,,0.00,WUHU216HW,2013-02-12 00:39:00,
2013-02-11 18:44:00,30.4,23.8,30.34,North,0,0.0,0.0,76,0.00,,,0.00,WUHU216HW,2013-02-12 00:44:00,
2013-02-11 18:49:00,30.4,23.4,30.35,North,0,0.0,0.0,75,0.00,,,0.00,WUHU216HW,2013-02-12 00:49:00,
2013-02-11 18:54:00,30.2,23.6,30.35,North,0,0.0,0.0,76,0.00,,,0.00,WUHU216HW,2013-02-12 00:54:00,
2013-02-11 18:59:00,30.2,23.2,30.35,North,0,0.0,0.0,75,0.00,,,0.00,WUHU216HW,2013-02-12 00:59:00,
2013-02-11 19:04:00,30.2,23.2,30.36,North,0,0.0,0.0,75,0.00,,,0.00,WUHU216HW,2013-02-12 01:04:00,
2013-02-11 19:09:00,30.1,22.8,30.36,North,0,0.0,0.0,74,0.00,,,0.00,WUHU216HW,2013-02-12 01:09:00,
2013-02-11 19:14:00,29.9,22.9,30.36,North,0,0.0,0.0,75,0.00,,,0.00,WUHU216HW,2013-02-12 01:14:00,
2013-02-11 19:19:00,29.9,22.9,30.36,North,0,0.0,0.0,75,0.00,,,0.00,WUHU216HW,2013-02-12 01:19:00,
2013-02-11 19:24:00,29.9,22.9,30.36,North,0,0.0,0.0,75,0.00,,,0.00,WUHU216HW,2013-02-12 01:24:00,
2013-02-11 19:29:00,29.9,23.2,30.36,North,0,0.0,0.0,76,0.00,,,0.00,WUHU216HW,2013-02-12 01:29:00,
2013-02-11 19:34:00,29.9,22.9,30.36,North,0,0.0,0.0,75,0.00,,,0.00,WUHU216HW,2013-02-12 01:34:00,
2013-02-11 19:39:00,29.7,23.1,30.36,North,0,0.0,0.0,76,0.00,,,0.00,WUHU216HW,2013-02-12 01:39:00,
2013-02-11 19:44:00,29.7,22.7,30.36,North,0,0.0,0.0,75,0.00,,,0.00,WUHU216HW,2013-02-12 01:44:00,
2013-02-11 19:49:00,29.5,22.9,30.36,North,0,0.0,0.0,76,0.00,,,0.00,WUHU216HW,2013-02-12 01:49:00,
2013-02-11 19:54:00,29.5,22.5,30.36,North,0,0.0,0.0,75,0.00,,,0.00,WUHU216HW,2013-02-12 01:54:00,
2013-02-11 19:59:00,29.5,22.5,30.36,North,0,0.0,0.0,75,0.00,,,0.00,WUHU216HW,2013-02-12 01:59:00,
2013-02-11 20:04:00,29.5,22.5,30.37,North,0,0.0,0.0,75,0.00,,,0.00,WUHU216HW,2013-02-12 02:04:00,
2013-02-11 20:09:00,29.3,22.4,30.37,North,0,0.0,0.0,75,0.00,,,0.00,WUHU216HW,2013-02-12 02:09:00,
2013-02-11 20:14:00,29.3,22.4,30.37,North,0,0.0,0.0,75,0.00,,,0.00,WUHU216HW,2013-02-12 02:14:00,
2013-02-11 20:19:00,29.3,22.7,30.36,North,0,0.0,0.0,76,0.00,,,0.00,WUHU216HW,2013-02-12 02:19:00,
2013-02-11 20:24:00,29.2,22.2,30.37,North,0,0.0,0.0,75,0.00,,,0.00,WUHU216HW,2013-02-12 02:24:00,
2013-02-11 20:29:00,29.2,22.2,30.37,North,0,0.0,0.0,75,0.00,,,0.00,WUHU216HW,2013-02-12 02:29:00,
2013-02-11 20:34:00,29.2,22.2,30.37,North,0,0.0,0.0,75,0.00,,,0.00,WUHU216HW,2013-02-12 02:34:00,
2013-02-11 20:39:00,29.2,22.5,30.38,North,0,0.0,0.0,76,0.00,,,0.00,WUHU216HW,2013-02-12 02:39:00,
2013-02-11 20:44:00,29.2,22.5,30.38,North,0,0.0,0.0,76,0.00,,,0.00,WUHU216HW,2013-02-12 02:44:00,
2013-02-11 20:49:00,29.2,22.5,30.38,North,0,0.0,0.0,76,0.00,,,0.00,WUHU216HW,2013-02-12 02:49:00,
2013-02-11 20:54:00,29.2,22.5,30.38,North,0,0.0,0.0,76,0.00,,,0.00,WUHU216HW,2013-02-12 02:54:00,
2013-02-11 20:59:00,29.2,22.5,30.38,North,0,0.0,0.0,76,0.00,,,0.00,WUHU216HW,2013-02-12 02:59:00,
2013-02-11 21:04:00,29.2,22.2,30.38,North,0,0.0,0.0,75,0.00,,,0.00,WUHU216HW,2013-02-12 03:04:00,
2013-02-11 21:09:00,29.3,22.4,30.38,North,0,0.0,0.0,75,0.00,,,0.00,WUHU216HW,2013-02-12 03:09:00,
2013-02-11 21:14:00,29.2,22.2,30.38,North,0,0.0,0.0,75,0.00,,,0.00,WUHU216HW,2013-02-12 03:14:00,
2013-02-11 21:19:00,29.2,22.5,30.37,North,0,0.0,0.0,76,0.00,,,0.00,WUHU216HW,2013-02-12 03:19:00,
2013-02-11 21:24:00,29.2,22.2,30.38,North,0,0.0,0.0,75,0.00,,,0.00,WUHU216HW,2013-02-12 03:24:00,
2013-02-11 21:29:00,29.0,21.7,30.38,North,0,0.0,0.0,74,0.00,,,0.00,WUHU216HW,2013-02-12 03:29:00,
2013-02-11 21:34:00,28.8,21.5,30.37,North,0,0.0,0.0,74,0.00,,,0.00,WUHU216HW,2013-02-12 03:34:00,
2013-02-11 21:39:00,28.6,22.0,30.38,North,0,0.0,0.0,76,0.00,,,0.00,WUHU216HW,2013-02-12 03:39:00,
2013-02-11 21:44:00,28.6,22.0,30.38,North,0,0.0,0.0,76,0.00,,,0.00,WUHU216HW,2013-02-12 03:44:00,
2013-02-11 21:49:00,28.6,21.7,30.38,North,0,0.0,0.0,75,0.00,,,0.00,WUHU216HW,2013-02-12 03:49:00,
2013-02-11 21:54:00,28.6,21.7,30.38,North,0,0.0,0.0,75,0.00,,,0.00,WUHU216HW,2013-02-12 03:54:00,
2013-02-11 21:59:00,28.6,21.7,30.38,North,0,0.0,0.0,75,0.00,,,0.00,WUHU216HW,2013-02-12 03:59:00,
2013-02-11 22:04:00,28.6,22.0,30.38,North,0,0.0,0.0,76,0.00,,,0.00,WUHU216HW,2013-02-12 04:04:00,
2013-02-11 22:09:00,28.6,22.0,30.39,North,0,0.0,0.0,76,0.00,,,0.00,WUHU216HW,2013-02-12 04:09:00,
2013-02-11 22:14:00,28.4,21.8,30.39,North,0,0.0,0.0,76,0.00,,,0.00,WUHU216HW,2013-02-12 04:14:00,
2013-02-11 22:19:00,28.4,21.8,30.39,North,0,0.0,0.0,76,0.00,,,0.00,WUHU216HW,2013-02-12 04:19:00,
2013-02-11 22:24:00,28.3,21.3,30.39,North,0,0.0,0.0,75,0.00,,,0.00,WUHU216HW,2013-02-12 04:24:00,
2013-02-11 22:29:00,28.1,21.2,30.38,North,0,0.0,0.0,75,0.00,,,0.00,WUHU216HW,2013-02-12 04:29:00,
2013-02-11 22:34:00,27.9,21.0,30.38,North,0,0.0,0.0,75,0.00,,,0.00,WUHU216HW,2013-02-12 04:34:00,
2013-02-11 22:39:00,27.7,20.8,30.39,North,0,0.0,0.0,75,0.00,,,0.00,WUHU216HW,2013-02-12 04:39:00,
2013-02-11 22:44:00,27.7,21.1,30.39,North,0,0.0,0.0,76,0.00,,,0.00,WUHU216HW,2013-02-12 04:44:00,
2013-02-11 22:49:00,27.7,21.1,30.40,North,0,0.0,0.0,76,0.00,,,0.00,WUHU216HW,2013-02-12 04:49:00,
2013-02-11 22:54:00,27.7,21.1,30.40,North,0,0.0,0.0,76,0.00,,,0.00,WUHU216HW,2013-02-12 04:54:00,
2013-02-11 22:59:00,27.5,20.6,30.40,North,0,0.0,0.0,75,0.00,,,0.00,WUHU216HW,2013-02-12 04:59:00,
2013-02-11 23:00:00,27.5,20.6,30.40,North,0,0.0,0.0,75,0.00,,,0.00,WUHU216HW,2013-02-12 05:00:00,
2013-02-11 23:05:00,27.5,20.9,30.40,North,0,0.0,0.0,76,0.00,,,0.00,WUHU216HW,2013-02-12 05:05:00,
2013-02-11 23:10:00,27.5,20.9,30.41,North,0,0.0,0.0,76,0.00,,,0.00,WUHU216HW,2013-02-12 05:10:00,
2013-02-11 23:15:00,27.5,20.9,30.41,North,0,0.0,0.0,76,0.00,,,0.00,WUHU216HW,2013-02-12 05:15:00,
2013-02-11 23:20:00,27.5,21.3,30.41,North,0,0.0,0.0,77,0.00,,,0.00,WUHU216HW,2013-02-12 05:20:00,
2013-02-11 23:25:00,27.5,21.3,30.41,North,0,0.0,0.0,77,0.00,,,0.00,WUHU216HW,2013-02-12 05:25:00,
2013-02-11 23:30:00,27.7,21.4,30.41,North,0,0.0,0.0,77,0.00,,,0.00,WUHU216HW,2013-02-12 05:30:00,
2013-02-11 23:35:00,27.7,21.4,30.41,North,0,0.0,0.0,77,0.00,,,0.00,WUHU216HW,2013-02-12 05:35:00,
2013-02-11 23:40:00,27.7,21.4,30.41,North,0,0.0,0.0,77,0.00,,,0.00,WUHU216HW,2013-02-12 05:40:00,
2013-02-11 23:45:00,27.7,21.7,30.41,North,0,0.0,0.0,78,0.00,,,0.00,WUHU216HW,2013-02-12 05:45:00,
2013-02-11 23:50:00,27.7,21.7,30.41,North,0,0.0,0.0,78,0.00,,,0.00,WUHU216HW,2013-02-12 05:50:00,
2013-02-11 23:55:00,27.7,21.7,30.41,North,0,0.0,0.0,78,0.00,,,0.00,WUHU216HW,2013-02-12 05:55:00,